Time;durP1;ratioP1;P1;durP2;ratioP2;P2;SDS_P1;SDS_P2;PMS_P1;PMS_P2;Temp;Humidity;BMP_temperature;BMP_pressure;BME280_temperature;BME280_humidity;BME280_pressure;Samples;Min_cycle;Max_cycle;Signal;HPM_P1;HPM_P2
2022/01/17 00:01:07;;;;;;;43.53;21.38;;;;;;;5.07;100.00;103010.19;5088876;28;20044;-69
2022/01/17 00:03:33;;;;;;;50.10;21.00;;;;;;;5.09;100.00;103026.81;5090680;28;20043;-69
2022/01/17 00:05:59;;;;;;;41.63;23.33;;;;;;;5.09;100.00;103024.16;5090564;28;20028;-69
2022/01/17 00:08:24;;;;;;;44.70;23.00;;;;;;;5.10;100.00;103035.56;5090629;28;20138;-69
2022/01/17 00:10:50;;;;;;;37.40;20.10;;;;;;;5.11;100.00;103037.25;5090513;28;20115;-69
2022/01/17 00:13:25;;;;;;;40.42;21.02;;;;;;;5.08;100.00;103027.72;5090369;28;20475;-69
2022/01/17 00:16:04;;;;;;;38.13;19.60;;;;;;;5.08;100.00;103022.44;5090426;28;20074;-69
2022/01/17 00:21:17;;;;;;;35.58;17.35;;;;;;;5.14;100.00;103034.41;5058435;28;20036;-67
2022/01/17 00:23:43;;;;;;;34.78;18.70;;;;;;;5.11;100.00;103027.53;5089309;28;20020;-67
2022/01/17 00:26:09;;;;;;;39.03;19.30;;;;;;;5.13;100.00;103032.72;5090418;28;20024;-67
2022/01/17 00:28:34;;;;;;;39.13;20.67;;;;;;;5.12;100.00;103021.28;5090227;28;20379;-67
2022/01/17 00:31:01;;;;;;;35.50;16.88;;;;;;;5.12;100.00;103018.66;5088807;28;20061;-67
2022/01/17 00:33:27;;;;;;;39.65;19.05;;;;;;;5.07;100.00;103012.00;5088793;28;20035;-67
2022/01/17 00:35:53;;;;;;;38.17;18.58;;;;;;;4.98;100.00;103000.25;5090074;28;20429;-67
2022/01/17 00:38:18;;;;;;;35.05;16.75;;;;;;;5.08;100.00;103019.78;5089897;28;20028;-67
2022/01/17 00:40:44;;;;;;;31.45;16.58;;;;;;;5.01;100.00;103005.34;5089927;28;20476;-67
2022/01/17 00:43:12;;;;;;;36.45;17.92;;;;;;;5.07;100.00;103025.22;5089945;28;20046;-67
2022/01/17 00:45:41;;;;;;;34.50;18.55;;;;;;;5.05;100.00;103023.50;5089978;28;20028;-67
2022/01/17 00:48:07;;;;;;;32.85;16.95;;;;;;;5.04;100.00;103019.19;5089844;28;20029;-67
2022/01/17 00:50:34;;;;;;;42.10;18.80;;;;;;;5.06;100.00;103021.72;5090002;28;20008;-67
2022/01/17 00:53:03;;;;;;;34.47;17.75;;;;;;;5.01;100.00;103011.47;5089793;28;20387;-67
2022/01/17 00:55:33;;;;;;;34.42;16.83;;;;;;;5.05;100.00;103028.78;5088565;28;20024;-67
2022/01/17 00:58:00;;;;;;;34.30;16.17;;;;;;;5.04;100.00;103021.81;5089607;28;20552;-67
2022/01/17 01:00:26;;;;;;;36.45;18.48;;;;;;;5.04;100.00;103026.28;5089528;28;20052;-67
2022/01/17 01:02:51;;;;;;;29.27;15.07;;;;;;;5.05;100.00;103031.44;5089413;28;20588;-67
2022/01/17 01:05:17;;;;;;;33.75;15.45;;;;;;;5.01;100.00;103024.69;5089653;28;20047;-67
2022/01/17 01:07:43;;;;;;;32.00;16.98;;;;;;;5.07;100.00;103041.09;5089433;28;21028;-67
2022/01/17 01:10:10;;;;;;;34.28;16.92;;;;;;;5.06;100.00;103040.25;5089562;28;20118;-67
2022/01/17 01:12:41;;;;;;;34.33;16.80;;;;;;;5.07;100.00;103046.38;5089374;28;20111;-67
2022/01/17 01:15:12;;;;;;;35.17;17.17;;;;;;;5.07;100.00;103041.91;5089242;28;20837;-67
2022/01/17 01:17:53;;;;;;;33.42;16.40;;;;;;;5.02;100.00;103028.16;5089943;28;20039;-67
2022/01/17 01:28:34;;;;;;;30.30;15.73;;;;;;;5.07;100.00;103035.78;5089547;28;20089;-67
2022/01/17 01:31:03;;;;;;;28.48;15.13;;;;;;;5.06;100.00;103034.94;5089220;28;20493;-67
2022/01/17 01:33:33;;;;;;;29.17;16.02;;;;;;;5.05;100.00;103033.25;5087768;28;20047;-67
2022/01/17 01:36:14;;;;;;;27.08;15.15;;;;;;;5.04;100.00;103026.28;5093036;28;20038;-67
2022/01/17 01:38:41;;;;;;;30.70;15.43;;;;;;;5.06;100.00;103040.25;5092706;28;20024;-67
2022/01/17 01:41:06;;;;;;;28.95;15.07;;;;;;;5.05;100.00;103044.66;5093190;28;20111;-67
2022/01/17 01:43:32;;;;;;;28.65;14.27;;;;;;;5.03;100.00;103051.00;5092792;28;20111;-67
2022/01/17 01:46:00;;;;;;;28.00;13.10;;;;;;;5.02;100.00;103049.31;5093095;28;20040;-67
2022/01/17 01:48:30;;;;;;;31.20;13.40;;;;;;;5.08;100.00;103061.28;5091307;28;20024;-67
2022/01/17 01:50:56;;;;;;;24.83;14.10;;;;;;;5.07;100.00;103060.44;5093305;28;20416;-67
2022/01/17 01:53:23;;;;;;;31.23;14.95;;;;;;;5.08;100.00;103048.06;5093257;28;20028;-67
2022/01/17 01:55:51;;;;;;;25.08;13.13;;;;;;;5.08;100.00;103035.66;5073537;28;20032;-67
2022/01/17 01:58:17;;;;;;;28.05;13.77;;;;;;;5.08;100.00;103032.19;5093376;28;20118;-67
2022/01/17 02:00:42;;;;;;;24.88;13.00;;;;;;;5.08;100.00;103056.81;5092572;28;20558;-67
2022/01/17 02:03:08;;;;;;;29.90;11.65;;;;;;;5.05;100.00;103039.38;5092726;28;20060;-67
2022/01/17 02:05:33;;;;;;;29.23;13.23;;;;;;;5.08;100.00;103043.59;5092914;28;20502;-67
2022/01/17 02:07:59;;;;;;;33.92;14.52;;;;;;;5.04;100.00;103050.06;5092817;28;20039;-67
2022/01/17 02:10:24;;;;;;;35.45;13.60;;;;;;;4.99;100.00;103055.69;5092910;28;20391;-67
2022/01/17 02:12:50;;;;;;;26.00;13.07;;;;;;;4.92;100.00;103048.25;5092786;28;20032;-67
2022/01/17 02:15:17;;;;;;;29.45;11.65;;;;;;;4.83;100.00;103060.31;5092865;28;20039;-67
2022/01/17 02:17:53;;;;;;;22.27;9.65;;;;;;;4.76;100.00;103053.75;5092856;28;20028;-67
2022/01/17 02:20:21;;;;;;;25.20;11.15;;;;;;;4.68;100.00;103054.25;5074590;28;20020;-67
2022/01/17 02:22:49;;;;;;;26.30;11.63;;;;;;;4.61;100.00;103050.34;5072911;28;20154;-67
2022/01/17 02:25:14;;;;;;;24.23;11.05;;;;;;;4.54;100.00;103051.72;5073053;28;20043;-67
2022/01/17 02:27:40;;;;;;;27.50;10.63;;;;;;;4.45;100.00;103045.22;5055167;28;20029;-67
2022/01/17 02:30:06;;;;;;;26.02;11.55;;;;;;;4.39;100.00;103040.38;5073158;28;20379;-67
2022/01/17 02:32:33;;;;;;;21.50;11.10;;;;;;;4.31;100.00;103046.16;5073068;28;20383;-67
2022/01/17 02:35:17;;;;;;;24.38;10.63;;;;;;;4.23;100.00;103056.38;5073271;28;20547;-67
2022/01/17 02:37:43;;;;;;;26.38;12.25;;;;;;;4.15;100.00;103056.88;5092247;28;20036;-67
2022/01/17 02:40:09;;;;;;;26.02;11.07;;;;;;;4.09;100.00;103046.72;5091336;28;20028;-67
2022/01/17 02:42:36;;;;;;;24.38;10.88;;;;;;;4.04;100.00;103054.09;5091666;28;20032;-67
2022/01/17 02:45:11;;;;;;;21.52;11.35;;;;;;;3.99;100.00;103065.91;5092124;28;20028;-67
2022/01/17 02:47:37;;;;;;;25.23;12.23;;;;;;;3.95;100.00;103052.03;5091350;28;20044;-67
2022/01/17 02:50:04;;;;;;;24.73;9.70;;;;;;;3.91;100.00;103055.84;5090886;28;21041;-67
2022/01/17 02:52:29;;;;;;;22.80;11.45;;;;;;;3.86;100.00;103050.00;5092007;28;20043;-67
2022/01/17 02:54:54;;;;;;;27.27;11.40;;;;;;;3.84;100.00;103067.72;5092079;28;20032;-67
2022/01/17 02:57:20;;;;;;;31.02;12.45;;;;;;;3.74;100.00;103048.97;5091922;28;20116;-67
2022/01/17 02:59:45;;;;;;;25.55;12.05;;;;;;;3.82;100.00;103059.06;5090858;28;20058;-67
2022/01/17 03:02:10;;;;;;;23.98;11.48;;;;;;;3.82;100.00;103061.69;5091852;28;20052;-67
2022/01/17 03:04:36;;;;;;;26.17;10.13;;;;;;;3.83;100.00;103064.25;5091812;28;20044;-67
2022/01/17 03:07:01;;;;;;;25.30;10.40;;;;;;;3.84;100.00;103050.09;5091750;28;20036;-67
2022/01/17 03:09:32;;;;;;;22.98;10.57;;;;;;;3.86;100.00;103045.56;5090472;28;20081;-67
2022/01/17 03:11:57;;;;;;;26.30;10.00;;;;;;;3.87;100.00;103054.34;5091554;28;20028;-67
2022/01/17 03:14:23;;;;;;;20.63;12.27;;;;;;;3.87;100.00;103049.06;5091635;28;20034;-67
2022/01/17 03:16:49;;;;;;;23.35;9.30;;;;;;;3.86;100.00;103035.00;5091588;28;20039;-67
2022/01/17 03:19:15;;;;;;;22.00;10.68;;;;;;;3.82;100.00;103033.50;5091472;28;20505;-66
2022/01/17 03:21:40;;;;;;;22.75;8.52;;;;;;;3.80;100.00;103038.06;5091266;28;20036;-67
2022/01/17 03:24:07;;;;;;;21.63;9.68;;;;;;;3.77;100.00;103042.66;5091509;28;20062;-67
2022/01/17 03:26:32;;;;;;;20.52;9.32;;;;;;;3.75;100.00;103055.97;5091331;28;20429;-67
2022/01/17 03:29:00;;;;;;;20.38;8.38;;;;;;;3.70;100.00;103052.78;5091416;28;20028;-67
2022/01/17 03:31:25;;;;;;;22.10;8.75;;;;;;;3.67;100.00;103059.09;5091326;28;20028;-67
2022/01/17 03:33:51;;;;;;;23.48;9.18;;;;;;;3.65;100.00;103058.34;5090565;28;20024;-66
2022/01/17 03:36:16;;;;;;;22.02;8.52;;;;;;;3.61;100.00;103053.34;5090759;28;20025;-67
2022/01/17 03:38:42;;;;;;;23.67;8.98;;;;;;;3.61;100.00;103058.63;5084399;28;20024;-67
2022/01/17 03:41:08;;;;;;;21.17;8.23;;;;;;;3.56;100.00;103056.25;5074673;28;20028;-67
2022/01/17 03:43:35;;;;;;;22.23;7.93;;;;;;;3.55;100.00;103062.50;5089804;28;20511;-67
2022/01/17 03:46:00;;;;;;;23.48;8.35;;;;;;;3.51;100.00;103060.97;5089395;28;20046;-67
2022/01/17 03:48:28;;;;;;;24.48;8.63;;;;;;;3.46;100.00;103052.53;5090833;28;20027;-67
2022/01/17 03:50:55;;;;;;;22.00;9.60;;;;;;;3.43;100.00;103055.34;5090924;28;20024;-67
2022/01/17 03:53:21;;;;;;;20.88;8.23;;;;;;;3.36;100.00;103051.41;5090928;28;20032;-67
2022/01/17 03:55:47;;;;;;;20.42;8.02;;;;;;;3.34;100.00;103054.13;5090918;28;20165;-67
2022/01/17 03:58:12;;;;;;;18.17;7.85;;;;;;;3.33;100.00;103046.28;5090734;28;20107;-67
2022/01/17 04:00:44;;;;;;;20.13;7.80;;;;;;;3.33;100.00;103051.56;5090063;28;20444;-67
2022/01/17 04:03:10;;;;;;;19.10;6.45;;;;;;;3.31;100.00;103061.38;5090731;28;20067;-67
2022/01/17 04:05:35;;;;;;;20.17;7.43;;;;;;;3.30;100.00;103057.88;5090584;28;20959;-67
2022/01/17 04:08:01;;;;;;;15.63;7.20;;;;;;;3.31;100.00;103066.66;5090534;28;20068;-67
2022/01/17 04:10:26;;;;;;;19.55;8.05;;;;;;;3.30;100.00;103063.16;5090431;28;20036;-67
2022/01/17 04:12:53;;;;;;;20.25;7.05;;;;;;;3.28;100.00;103062.44;5090562;28;20044;-67
2022/01/17 04:15:19;;;;;;;18.65;7.38;;;;;;;3.26;100.00;103062.50;5090438;28;20032;-67
2022/01/17 04:17:44;;;;;;;21.63;8.02;;;;;;;3.28;100.00;103067.69;5071011;28;20024;-67
2022/01/17 04:20:16;;;;;;;25.80;7.15;;;;;;;3.25;100.00;103063.47;5090431;28;20024;-67
2022/01/17 04:22:50;;;;;;;24.13;7.47;;;;;;;3.20;100.00;103065.53;5090213;28;20153;-67
2022/01/17 04:25:15;;;;;;;16.17;6.35;;;;;;;3.18;100.00;103071.84;5070932;28;20074;-66
2022/01/17 04:27:41;;;;;;;22.92;7.65;;;;;;;3.14;100.00;103072.94;5090273;28;20107;-67
2022/01/17 04:30:07;;;;;;;21.17;7.32;;;;;;;3.13;100.00;103079.19;5088857;28;20032;-67
2022/01/17 04:32:32;;;;;;;20.95;7.68;;;;;;;3.10;100.00;103069.66;5090165;28;20492;-67
2022/01/17 04:34:58;;;;;;;17.73;7.38;;;;;;;3.09;100.00;103065.31;5090241;28;20111;-67
2022/01/17 04:37:23;;;;;;;19.17;7.95;;;;;;;3.03;100.00;103065.69;5090084;28;20064;-67
2022/01/17 04:39:48;;;;;;;17.52;7.03;;;;;;;3.04;100.00;103067.41;5090010;28;20028;-67
2022/01/17 04:42:16;;;;;;;16.00;6.00;;;;;;;3.01;100.00;103075.47;5089880;28;20112;-67
2022/01/17 04:47:29;;;;;;;16.45;6.78;;;;;;;2.99;100.00;103061.56;5089772;28;20055;-67
2022/01/17 04:49:55;;;;;;;18.33;6.20;;;;;;;2.98;100.00;103067.75;5080382;28;20112;-67
2022/01/17 04:52:20;;;;;;;28.77;8.18;;;;;;;2.97;100.00;103072.19;5070530;28;20119;-67
2022/01/17 04:54:52;;;;;;;17.95;7.68;;;;;;;3.00;100.00;103081.69;5089649;28;20044;-67
2022/01/17 04:57:18;;;;;;;;;;;;;;;3.05;100.00;103095.47;5090253;28;20475;-67
2022/01/17 04:59:43;;;;;;;18.10;6.53;;;;;;;3.10;100.00;103089.91;5082014;28;19955;-67
2022/01/17 05:02:08;;;;;;;21.60;5.53;;;;;;;3.14;100.00;103089.63;5069575;28;20521;-67
2022/01/17 05:04:34;;;;;;;14.30;5.00;;;;;;;3.17;100.00;103094.72;5069927;28;20039;-67
2022/01/17 05:06:59;;;;;;;14.77;5.10;;;;;;;3.18;100.00;103103.47;5089346;28;20447;-67
2022/01/17 05:09:25;;;;;;;13.80;6.13;;;;;;;3.18;100.00;103116.66;5089151;28;20086;-67
2022/01/17 05:11:51;;;;;;;25.00;5.75;;;;;;;3.23;100.00;103117.22;5089446;28;20024;-67
2022/01/17 05:14:16;;;;;;;15.00;6.60;;;;;;;3.29;100.00;103115.06;5089157;28;20028;-67
2022/01/17 05:16:48;;;;;;;13.07;5.15;;;;;;;3.32;100.00;103103.47;5089310;28;20024;-67
2022/01/17 05:21:57;;;;;;;14.15;4.05;;;;;;;3.33;100.00;103102.56;5069963;28;20086;-67
2022/01/17 05:24:22;;;;;;;17.00;6.43;;;;;;;3.39;100.00;103103.97;5070046;28;20028;-67
2022/01/17 05:26:48;;;;;;;16.17;6.57;;;;;;;3.43;100.00;103106.31;5070031;28;20028;-67
2022/01/17 05:29:13;;;;;;;14.27;6.30;;;;;;;3.42;100.00;103103.78;5070028;28;20468;-67
2022/01/17 05:31:39;;;;;;;14.20;4.90;;;;;;;3.44;100.00;103099.25;5069886;28;20028;-67
2022/01/17 05:34:04;;;;;;;13.52;4.00;;;;;;;3.45;100.00;103095.66;5069887;28;20036;-67
2022/01/17 05:36:30;;;;;;;14.18;4.70;;;;;;;3.41;100.00;103104.72;5069822;28;20025;-67
2022/01/17 05:38:55;;;;;;;19.63;5.85;;;;;;;3.34;100.00;103111.31;5070005;28;20039;-67
2022/01/17 05:41:20;;;;;;;11.02;5.28;;;;;;;3.30;100.00;103115.91;5069690;28;20078;-67
2022/01/17 05:43:46;;;;;;;19.40;6.30;;;;;;;3.22;100.00;103116.41;5089091;28;20028;-67
2022/01/17 05:46:12;;;;;;;13.60;6.40;;;;;;;3.19;100.00;103121.81;5088563;28;20036;-67
2022/01/17 05:48:37;;;;;;;14.02;4.72;;;;;;;3.16;100.00;103113.25;5088310;28;20392;-66
2022/01/17 05:51:02;;;;;;;12.15;4.82;;;;;;;3.12;100.00;103117.88;5088953;28;20422;-67
2022/01/17 05:53:28;;;;;;;14.13;4.47;;;;;;;3.06;100.00;103111.16;5089010;28;20043;-67
2022/01/17 05:55:53;;;;;;;17.38;5.45;;;;;;;3.02;100.00;103109.66;5089074;28;20024;-67
2022/01/17 05:58:19;;;;;;;13.35;4.50;;;;;;;2.96;100.00;103107.41;5088762;28;20039;-67
2022/01/17 06:00:44;;;;;;;15.75;5.68;;;;;;;2.97;100.00;103102.97;5088554;28;20060;-67
2022/01/17 06:03:10;;;;;;;18.50;5.28;;;;;;;2.96;100.00;103120.59;5079060;28;20095;-67
2022/01/17 06:05:35;;;;;;;12.70;5.07;;;;;;;3.01;100.00;103118.53;5088642;28;20104;-67
2022/01/17 06:08:00;;;;;;;12.70;5.00;;;;;;;3.01;100.00;103120.28;5088785;28;20467;-67
2022/01/17 06:10:26;;;;;;;25.70;8.50;;;;;;;2.97;100.00;103102.97;5088442;28;20031;-67
2022/01/17 06:12:51;;;;;;;13.23;5.20;;;;;;;3.02;100.00;103114.94;5087828;28;20063;-66
2022/01/17 06:15:18;;;;;;;12.57;5.05;;;;;;;3.00;100.00;103129.16;5088480;28;20036;-67
2022/01/17 06:17:44;;;;;;;11.40;5.45;;;;;;;3.04;100.00;103125.41;5088725;28;20027;-67
2022/01/17 06:20:10;;;;;;;17.58;5.00;;;;;;;3.03;100.00;103132.44;5088577;28;20146;-67
2022/01/17 06:22:35;;;;;;;15.15;5.60;;;;;;;3.03;100.00;103110.50;5091583;28;20040;-67
2022/01/17 06:25:01;;;;;;;15.43;6.35;;;;;;;3.00;100.00;103111.53;5092451;28;20032;-67
2022/01/17 06:27:26;;;;;;;17.38;6.00;;;;;;;3.01;100.00;103125.56;5092383;28;20028;-67
2022/01/17 06:29:52;;;;;;;17.45;6.38;;;;;;;3.00;100.00;103130.00;5085424;28;20032;-67
2022/01/17 06:32:17;;;;;;;12.45;6.60;;;;;;;3.00;100.00;103135.25;5072917;28;20046;-67
2022/01/17 06:34:43;;;;;;;27.67;7.00;;;;;;;2.99;100.00;103130.94;5072598;28;20123;-67
2022/01/17 06:37:08;;;;;;;15.43;6.60;;;;;;;2.93;100.00;103131.28;5072893;28;20479;-67
2022/01/17 06:39:34;;;;;;;18.58;7.10;;;;;;;2.94;100.00;103121.63;5072748;28;20368;-67
2022/01/17 06:41:59;;;;;;;15.77;6.13;;;;;;;2.97;100.00;103135.44;5072793;28;20112;-67
2022/01/17 06:44:25;;;;;;;14.88;6.38;;;;;;;2.96;100.00;103139.03;5072757;28;20032;-67
2022/01/17 06:46:50;;;;;;;15.90;6.30;;;;;;;2.94;100.00;103138.28;5072218;28;20025;-67
2022/01/17 06:49:15;;;;;;;19.98;7.75;;;;;;;2.94;100.00;103122.47;5072652;28;20067;-67
2022/01/17 06:51:41;;;;;;;24.42;7.65;;;;;;;2.93;100.00;103140.97;5072197;28;20170;-67
2022/01/17 06:54:06;;;;;;;22.05;7.55;;;;;;;2.89;100.00;103142.97;5072553;28;20063;-67
2022/01/17 06:56:31;;;;;;;16.48;6.55;;;;;;;2.93;100.00;103156.78;5072679;28;20396;-67
2022/01/17 06:58:57;;;;;;;17.92;7.22;;;;;;;2.98;100.00;103173.19;5091736;28;20036;-67
2022/01/17 07:01:23;;;;;;;16.73;6.32;;;;;;;3.04;100.00;103173.69;5091639;28;20040;-67
2022/01/17 07:03:50;;;;;;;18.85;6.00;;;;;;;3.11;100.00;103173.31;5091746;28;20032;-67
2022/01/17 07:06:16;;;;;;;16.52;7.07;;;;;;;3.08;100.00;103161.16;5071877;28;20028;-67
2022/01/17 07:08:43;;;;;;;13.98;6.80;;;;;;;3.09;100.00;103183.94;5072344;28;20025;-67
2022/01/17 07:11:08;;;;;;;19.85;7.65;;;;;;;3.03;100.00;103185.16;5091267;28;20046;-67
2022/01/17 07:13:34;;;;;;;25.08;9.65;;;;;;;3.05;100.00;103179.81;5091668;28;20023;-67
2022/01/17 07:15:59;;;;;;;18.23;8.02;;;;;;;3.02;100.00;103157.13;5091574;28;20024;-67
2022/01/17 07:18:25;;;;;;;29.95;8.02;;;;;;;2.98;100.00;103145.03;5091527;28;20095;-67
2022/01/17 07:20:50;;;;;;;23.10;7.70;;;;;;;3.00;100.00;103142.31;5091413;28;20032;-67
2022/01/17 07:23:16;;;;;;;30.40;9.05;;;;;;;3.01;100.00;103144.00;5091392;28;20028;-67
2022/01/17 07:25:42;;;;;;;20.92;7.40;;;;;;;3.02;100.00;103143.94;5091443;28;20069;-67
2022/01/17 07:28:08;;;;;;;20.60;8.63;;;;;;;3.01;100.00;103144.88;5091161;28;20040;-67
2022/01/17 07:30:35;;;;;;;19.85;9.00;;;;;;;3.08;100.00;103150.63;5091173;28;20024;-67
2022/01/17 07:33:01;;;;;;;26.08;10.45;;;;;;;3.10;100.00;103164.56;5090698;28;20035;-67
2022/01/17 07:35:26;;;;;;;17.17;7.28;;;;;;;3.10;100.00;103169.84;5090929;28;20987;-67
2022/01/17 07:37:52;;;;;;;28.60;10.63;;;;;;;3.15;100.00;103177.50;5090816;28;20024;-67
2022/01/17 07:40:17;;;;;;;21.05;10.77;;;;;;;3.18;100.00;103174.66;5090620;28;20101;-67
2022/01/17 07:42:42;;;;;;;28.13;10.38;;;;;;;3.18;100.00;103178.16;5084384;28;20036;-67
2022/01/17 07:45:11;;;;;;;23.17;10.85;;;;;;;3.17;100.00;103189.66;5070315;28;20047;-67
2022/01/17 07:47:41;;;;;;;22.40;7.85;;;;;;;3.20;100.00;103196.53;5071024;28;20028;-67
2022/01/17 07:50:10;;;;;;;23.00;10.30;;;;;;;3.24;100.00;103188.31;5071324;28;20567;-67
2022/01/17 07:52:36;;;;;;;23.05;8.88;;;;;;;3.29;100.00;103190.69;5089826;28;20054;-67
2022/01/17 07:55:02;;;;;;;22.88;11.00;;;;;;;3.31;100.00;103188.81;5090676;28;20574;-67
2022/01/17 07:57:27;;;;;;;23.38;11.50;;;;;;;3.34;100.00;103195.72;5090802;28;20035;-67
2022/01/17 07:59:53;;;;;;;25.45;11.98;;;;;;;3.35;100.00;103198.22;5090663;28;20024;-67
2022/01/17 08:02:18;;;;;;;22.52;9.40;;;;;;;3.41;100.00;103208.44;5090465;28;20079;-67
2022/01/17 08:04:43;;;;;;;26.42;9.98;;;;;;;3.38;100.00;103199.84;5089252;28;20089;-67
2022/01/17 08:07:09;;;;;;;22.33;10.25;;;;;;;3.48;100.00;103209.78;5090502;28;20065;-68
2022/01/17 08:09:35;;;;;;;22.02;10.50;;;;;;;3.47;100.00;103207.22;5090525;28;20067;-68
2022/01/17 08:12:03;;;;;;;30.10;10.75;;;;;;;3.47;100.00;103204.59;5074788;28;20025;-68
2022/01/17 08:14:29;;;;;;;23.70;9.88;;;;;;;3.52;100.00;103215.72;5071318;28;20078;-68
2022/01/17 08:16:54;;;;;;;24.90;9.52;;;;;;;3.54;100.00;103216.47;5071070;28;20917;-67
2022/01/17 08:19:23;;;;;;;22.02;10.10;;;;;;;3.59;100.00;103208.25;5070737;28;20043;-68
2022/01/17 08:21:51;;;;;;;21.08;10.98;;;;;;;3.63;100.00;103217.69;5089974;28;20031;-68
2022/01/17 08:24:17;;;;;;;26.60;11.05;;;;;;;3.69;100.00;103223.47;5070672;28;20051;-68
2022/01/17 08:26:44;;;;;;;26.02;12.45;;;;;;;3.74;100.00;103217.88;5070660;28;20029;-67
2022/01/17 08:29:11;;;;;;;24.25;10.57;;;;;;;3.77;100.00;103225.63;5070688;28;20045;-67
2022/01/17 08:31:38;;;;;;;20.17;8.88;;;;;;;3.79;100.00;103220.25;5070583;28;20108;-68
2022/01/17 08:34:03;;;;;;;23.90;10.40;;;;;;;3.82;100.00;103228.81;5089811;28;20031;-67
2022/01/17 08:36:29;;;;;;;32.10;12.68;;;;;;;3.85;100.00;103230.44;5089990;28;20020;-68
2022/01/17 08:38:54;;;;;;;24.77;10.63;;;;;;;3.82;100.00;103207.72;5090004;28;20368;-68
2022/01/17 08:41:20;;;;;;;23.45;11.05;;;;;;;3.93;100.00;103221.13;5089845;28;20031;-68
2022/01/17 08:43:46;;;;;;;23.17;10.90;;;;;;;3.97;100.00;103197.16;5088723;28;20037;-68
2022/01/17 08:46:12;;;;;;;23.88;9.63;;;;;;;3.98;100.00;103204.97;5088888;28;20027;-68
2022/01/17 08:48:38;;;;;;;22.17;11.38;;;;;;;4.02;100.00;103210.94;5089397;28;20039;-68
2022/01/17 08:51:04;;;;;;;24.63;12.07;;;;;;;4.04;100.00;103204.59;5088793;28;20024;-68
2022/01/17 08:53:29;;;;;;;25.80;11.13;;;;;;;4.08;100.00;103215.81;5088405;28;20028;-67
2022/01/17 08:55:55;;;;;;;22.55;10.75;;;;;;;4.11;100.00;103226.19;5089701;28;20035;-67
2022/01/17 08:58:21;;;;;;;28.25;12.50;;;;;;;4.14;100.00;103226.03;5089785;28;20036;-67
2022/01/17 09:00:46;;;;;;;27.17;10.60;;;;;;;4.19;100.00;103231.81;5069954;28;20451;-67
2022/01/17 09:03:13;;;;;;;26.15;11.63;;;;;;;4.20;100.00;103222.13;5070148;28;20067;-68
2022/01/17 09:05:38;;;;;;;22.02;9.48;;;;;;;4.28;100.00;103225.16;5070215;28;20033;-68
2022/01/17 09:08:05;;;;;;;22.27;9.65;;;;;;;4.29;100.00;103222.38;5070193;28;20369;-68
2022/01/17 09:10:31;;;;;;;24.38;9.95;;;;;;;4.35;100.00;103229.94;5088742;28;20034;-68
2022/01/17 09:12:57;;;;;;;24.02;9.38;;;;;;;4.39;100.00;103214.72;5089418;28;21071;-68
2022/01/17 09:15:23;;;;;;;24.90;10.40;;;;;;;4.46;100.00;103231.06;5088626;28;20059;-68
2022/01/17 09:17:49;;;;;;;21.75;9.55;;;;;;;4.48;100.00;103243.22;5089390;28;20036;-68
2022/01/17 09:20:14;;;;;;;23.55;11.15;;;;;;;4.54;100.00;103249.91;5089318;28;20043;-68
2022/01/17 09:22:40;;;;;;;26.45;11.93;;;;;;;4.50;100.00;103246.59;5089304;28;20032;-68
2022/01/17 09:25:07;;;;;;;27.50;10.45;;;;;;;4.74;100.00;103262.72;5089354;28;20356;-68
2022/01/17 09:27:36;;;;;;;27.17;10.82;;;;;;;4.90;100.00;103261.69;5089298;28;20062;-68
2022/01/17 09:30:08;;;;;;;22.35;11.07;;;;;;;4.96;100.00;103259.50;5089169;28;20059;-68
2022/01/17 09:32:34;;;;;;;25.33;10.73;;;;;;;5.03;100.00;103267.88;5089364;28;20024;-68
2022/01/17 09:34:59;;;;;;;27.60;9.57;;;;;;;5.05;100.00;103255.41;5089048;28;20035;-68
2022/01/17 09:37:25;;;;;;;22.70;9.63;;;;;;;5.07;100.00;103256.16;5089160;28;20057;-67
2022/01/17 09:39:51;;;;;;;23.05;10.60;;;;;;;5.07;100.00;103248.22;5089281;28;20084;-69
2022/01/17 09:42:16;;;;;;;20.85;9.10;;;;;;;5.10;100.00;103249.81;5089021;28;20016;-68
2022/01/17 09:44:42;;;;;;;19.77;8.65;;;;;;;5.12;100.00;103258.50;5089171;28;20119;-68
2022/01/17 09:47:09;;;;;;;21.80;9.73;;;;;;;5.17;100.00;103277.56;5088953;28;20036;-69
2022/01/17 09:49:41;;;;;;;23.52;8.45;;;;;;;5.17;100.00;103291.63;5088563;28;20028;-69
2022/01/17 09:52:26;;;;;;;20.20;9.48;;;;;;;5.14;100.00;103280.41;5086791;28;20380;-69
2022/01/17 09:54:53;;;;;;;31.50;9.65;;;;;;;5.21;100.00;103292.28;5088856;28;20103;-68
2022/01/17 09:57:19;;;;;;;22.33;10.68;;;;;;;5.13;100.00;103282.19;5093020;28;20036;-69
2022/01/17 09:59:45;;;;;;;26.25;10.02;;;;;;;5.24;100.00;103310.63;5072755;28;20733;-68
2022/01/17 10:02:12;;;;;;;24.08;9.75;;;;;;;5.21;100.00;103316.94;5076495;28;20047;-68
2022/01/17 10:04:38;;;;;;;27.20;9.80;;;;;;;5.25;100.00;103313.13;5076349;28;20024;-68
2022/01/17 10:07:06;;;;;;;27.15;9.32;;;;;;;5.27;100.00;103308.59;5076996;28;20020;-68
2022/01/17 10:09:33;;;;;;;26.40;8.95;;;;;;;5.29;100.00;103316.41;5077433;28;20184;-67
2022/01/17 10:12:24;;;;;;;22.30;7.85;;;;;;;5.29;100.00;103300.53;5076943;28;20021;-67
2022/01/17 10:14:59;;;;;;;19.00;7.68;;;;;;;5.29;100.00;103303.19;5074384;28;20051;-67
2022/01/17 10:17:47;;;;;;;19.50;7.80;;;;;;;5.32;100.00;103310.94;5077340;28;20107;-67
2022/01/17 10:20:16;;;;;;;19.10;8.52;;;;;;;5.34;100.00;103302.91;5077153;28;20036;-67
2022/01/17 10:22:52;;;;;;;21.42;8.40;;;;;;;5.37;100.00;103298.25;5077101;28;20028;-67
2022/01/17 10:28:18;;;;;;;22.73;9.82;;;;;;;5.42;100.00;103312.03;5076582;28;20379;-69
2022/01/17 10:36:16;;;;;;;21.33;8.40;;;;;;;5.61;100.00;103316.94;5076192;28;20141;-68
2022/01/17 10:38:42;;;;;;;15.95;5.88;;;;;;;5.65;100.00;103317.56;5077079;28;20594;-68
2022/01/17 10:41:07;;;;;;;21.55;6.82;;;;;;;5.71;100.00;103315.38;5076441;28;20106;-68
2022/01/17 10:43:35;;;;;;;22.63;7.32;;;;;;;5.78;100.00;103326.38;5077062;28;20438;-68
2022/01/17 10:46:21;;;;;;;21.02;7.63;;;;;;;5.82;100.00;103313.81;5076878;28;20111;-67
2022/01/17 10:48:47;;;;;;;19.83;6.22;;;;;;;5.90;100.00;103316.78;5077122;28;20033;-71
2022/01/17 10:51:14;;;;;;;14.52;6.28;;;;;;;5.93;100.00;103314.78;5076127;28;20077;-70
2022/01/17 10:53:40;;;;;;;31.15;8.32;;;;;;;5.92;100.00;103313.06;5076583;28;20406;-70
2022/01/17 10:56:09;;;;;;;15.13;6.82;;;;;;;5.96;100.00;103316.38;5075806;28;20037;-70
2022/01/17 10:58:38;;;;;;;26.15;6.88;;;;;;;5.97;100.00;103323.34;5077110;28;20084;-70
2022/01/17 11:01:12;;;;;;;12.68;5.85;;;;;;;6.03;100.00;103341.50;5075588;28;20032;-71
2022/01/17 11:03:42;;;;;;;21.05;6.90;;;;;;;6.05;100.00;103342.25;5075660;28;20020;-71
2022/01/17 11:06:10;;;;;;;14.60;5.80;;;;;;;6.08;100.00;103344.69;5075655;28;20039;-71
2022/01/17 11:08:37;;;;;;;17.13;4.53;;;;;;;6.11;100.00;103346.28;5075605;28;20114;-71
2022/01/17 11:11:06;;;;;;;19.00;5.75;;;;;;;6.14;99.70;103354.84;5075217;28;20028;-69
2022/01/17 11:13:33;;;;;;;22.55;6.97;;;;;;;6.19;99.57;103366.94;5076375;28;20103;-71
2022/01/17 11:16:01;;;;;;;19.63;5.72;;;;;;;6.20;99.54;103355.38;5075962;28;20024;-71
2022/01/17 11:18:29;;;;;;;18.15;5.95;;;;;;;6.21;99.23;103357.06;5076257;28;20028;-71
2022/01/17 11:20:56;;;;;;;16.90;5.40;;;;;;;6.22;99.12;103358.78;5075491;28;20739;-71
2022/01/17 11:23:23;;;;;;;17.42;5.38;;;;;;;6.24;99.28;103352.41;5075491;28;20032;-71
2022/01/17 11:25:55;;;;;;;14.80;4.72;;;;;;;6.27;98.55;103336.31;5076243;28;20031;-70
2022/01/17 11:28:28;;;;;;;;;;;;;;;6.31;99.56;103344.88;5075819;28;20024;-70
2022/01/17 11:30:56;;;;;;;18.38;6.05;;;;;;;6.31;98.80;103334.28;5073973;28;20355;-70
2022/01/17 11:33:22;;;;;;;15.38;5.03;;;;;;;6.35;98.73;103333.13;5076117;28;20078;-70
2022/01/17 11:35:52;;;;;;;13.02;5.55;;;;;;;6.36;99.03;103327.69;5075564;28;20028;-71
2022/01/17 11:38:25;;;;;;;22.63;6.95;;;;;;;6.39;99.00;103323.97;5075145;28;20081;-71